sensor_id;sensor_type;location;lat;lon;timestamp;P1;durP1;ratioP1;P2;durP2;ratioP2
16634;SDS011;8431;52.458;9.998;2023-05-23T00:00:57;35.42;;;31.83;;
16634;SDS011;8431;52.458;9.998;2023-05-23T00:03:24;36.30;;;32.47;;
16634;SDS011;8431;52.458;9.998;2023-05-23T00:06:00;36.42;;;32.63;;
16634;SDS011;8431;52.458;9.998;2023-05-23T00:08:29;37.40;;;33.53;;
16634;SDS011;8431;52.458;9.998;2023-05-23T00:10:56;38.75;;;34.78;;
16634;SDS011;8431;52.458;9.998;2023-05-23T00:13:23;38.65;;;34.53;;
16634;SDS011;8431;52.458;9.998;2023-05-23T00:15:50;36.40;;;32.80;;
16634;SDS011;8431;52.458;9.998;2023-05-23T00:18:19;37.42;;;33.47;;
16634;SDS011;8431;52.458;9.998;2023-05-23T00:20:48;35.22;;;31.40;;
16634;SDS011;8431;52.458;9.998;2023-05-23T00:23:16;36.25;;;32.35;;
16634;SDS011;8431;52.458;9.998;2023-05-23T00:25:45;35.13;;;31.55;;
16634;SDS011;8431;52.458;9.998;2023-05-23T00:28:18;36.35;;;32.42;;
16634;SDS011;8431;52.458;9.998;2023-05-23T00:30:45;35.30;;;31.73;;
16634;SDS011;8431;52.458;9.998;2023-05-23T00:33:13;38.10;;;33.33;;
16634;SDS011;8431;52.458;9.998;2023-05-23T00:35:41;39.72;;;35.50;;
16634;SDS011;8431;52.458;9.998;2023-05-23T00:38:08;41.05;;;35.63;;
16634;SDS011;8431;52.458;9.998;2023-05-23T00:40:36;41.45;;;36.25;;
16634;SDS011;8431;52.458;9.998;2023-05-23T00:43:03;42.38;;;36.03;;
16634;SDS011;8431;52.458;9.998;2023-05-23T00:45:30;50.30;;;40.38;;
16634;SDS011;8431;52.458;9.998;2023-05-23T00:47:57;44.28;;;38.47;;
16634;SDS011;8431;52.458;9.998;2023-05-23T00:50:25;49.85;;;39.85;;
16634;SDS011;8431;52.458;9.998;2023-05-23T00:52:55;49.88;;;39.80;;
16634;SDS011;8431;52.458;9.998;2023-05-23T00:55:23;57.28;;;42.53;;
16634;SDS011;8431;52.458;9.998;2023-05-23T00:57:50;49.40;;;39.70;;
16634;SDS011;8431;52.458;9.998;2023-05-23T01:00:19;53.47;;;38.70;;
16634;SDS011;8431;52.458;9.998;2023-05-23T01:02:47;51.20;;;37.40;;
16634;SDS011;8431;52.458;9.998;2023-05-23T01:05:15;51.00;;;39.88;;
16634;SDS011;8431;52.458;9.998;2023-05-23T01:07:42;51.47;;;38.38;;
16634;SDS011;8431;52.458;9.998;2023-05-23T01:10:11;48.65;;;36.85;;
16634;SDS011;8431;52.458;9.998;2023-05-23T01:12:40;49.25;;;39.03;;
16634;SDS011;8431;52.458;9.998;2023-05-23T01:15:16;46.00;;;37.67;;
16634;SDS011;8431;52.458;9.998;2023-05-23T01:17:47;51.42;;;36.17;;
16634;SDS011;8431;52.458;9.998;2023-05-23T01:20:27;46.40;;;36.92;;
16634;SDS011;8431;52.458;9.998;2023-05-23T01:23:09;42.58;;;34.08;;
16634;SDS011;8431;52.458;9.998;2023-05-23T01:25:53;46.95;;;36.13;;
16634;SDS011;8431;52.458;9.998;2023-05-23T01:28:46;44.55;;;35.65;;
16634;SDS011;8431;52.458;9.998;2023-05-23T01:31:15;46.67;;;36.55;;
16634;SDS011;8431;52.458;9.998;2023-05-23T01:33:43;49.95;;;38.17;;
16634;SDS011;8431;52.458;9.998;2023-05-23T01:36:15;49.63;;;39.10;;
16634;SDS011;8431;52.458;9.998;2023-05-23T01:38:42;52.47;;;40.92;;
16634;SDS011;8431;52.458;9.998;2023-05-23T01:41:08;54.88;;;41.80;;
16634;SDS011;8431;52.458;9.998;2023-05-23T01:43:35;56.88;;;42.58;;
16634;SDS011;8431;52.458;9.998;2023-05-23T01:46:04;56.65;;;41.53;;
16634;SDS011;8431;52.458;9.998;2023-05-23T01:48:32;53.50;;;42.55;;
16634;SDS011;8431;52.458;9.998;2023-05-23T01:50:59;56.15;;;42.80;;
16634;SDS011;8431;52.458;9.998;2023-05-23T01:53:27;60.88;;;44.58;;
16634;SDS011;8431;52.458;9.998;2023-05-23T01:55:55;59.80;;;43.88;;
16634;SDS011;8431;52.458;9.998;2023-05-23T01:58:22;56.00;;;42.50;;
16634;SDS011;8431;52.458;9.998;2023-05-23T02:00:49;53.70;;;41.25;;
16634;SDS011;8431;52.458;9.998;2023-05-23T02:03:18;62.72;;;45.58;;
16634;SDS011;8431;52.458;9.998;2023-05-23T02:05:45;64.75;;;50.65;;
16634;SDS011;8431;52.458;9.998;2023-05-23T02:08:12;59.08;;;45.75;;
16634;SDS011;8431;52.458;9.998;2023-05-23T02:10:39;57.75;;;49.45;;
16634;SDS011;8431;52.458;9.998;2023-05-23T02:13:06;62.53;;;48.25;;
16634;SDS011;8431;52.458;9.998;2023-05-23T02:15:32;58.58;;;49.45;;
16634;SDS011;8431;52.458;9.998;2023-05-23T02:17:59;64.50;;;48.78;;
16634;SDS011;8431;52.458;9.998;2023-05-23T02:20:28;52.53;;;42.47;;
16634;SDS011;8431;52.458;9.998;2023-05-23T02:22:55;54.58;;;44.03;;
16634;SDS011;8431;52.458;9.998;2023-05-23T02:25:22;52.72;;;41.72;;
16634;SDS011;8431;52.458;9.998;2023-05-23T02:27:49;46.42;;;40.45;;
16634;SDS011;8431;52.458;9.998;2023-05-23T02:30:16;43.60;;;37.60;;
16634;SDS011;8431;52.458;9.998;2023-05-23T02:32:43;44.38;;;39.25;;
16634;SDS011;8431;52.458;9.998;2023-05-23T02:35:10;42.17;;;34.60;;
16634;SDS011;8431;52.458;9.998;2023-05-23T02:37:39;45.20;;;39.17;;
16634;SDS011;8431;52.458;9.998;2023-05-23T02:40:06;46.22;;;37.95;;
16634;SDS011;8431;52.458;9.998;2023-05-23T02:42:34;39.40;;;33.67;;
16634;SDS011;8431;52.458;9.998;2023-05-23T02:45:01;38.85;;;32.22;;
16634;SDS011;8431;52.458;9.998;2023-05-23T02:47:28;34.60;;;30.52;;
16634;SDS011;8431;52.458;9.998;2023-05-23T02:49:55;35.47;;;30.77;;
16634;SDS011;8431;52.458;9.998;2023-05-23T02:52:23;32.70;;;29.13;;
16634;SDS011;8431;52.458;9.998;2023-05-23T02:54:51;37.60;;;30.48;;
16634;SDS011;8431;52.458;9.998;2023-05-23T02:57:18;32.05;;;28.63;;
16634;SDS011;8431;52.458;9.998;2023-05-23T02:59:45;31.33;;;27.33;;
16634;SDS011;8431;52.458;9.998;2023-05-23T03:02:12;29.85;;;26.27;;
16634;SDS011;8431;52.458;9.998;2023-05-23T03:04:39;27.13;;;24.13;;
16634;SDS011;8431;52.458;9.998;2023-05-23T03:07:06;28.63;;;25.20;;
16634;SDS011;8431;52.458;9.998;2023-05-23T03:09:35;26.25;;;23.45;;
16634;SDS011;8431;52.458;9.998;2023-05-23T03:12:03;26.17;;;22.30;;
16634;SDS011;8431;52.458;9.998;2023-05-23T03:14:31;28.15;;;24.33;;
16634;SDS011;8431;52.458;9.998;2023-05-23T03:16:58;29.02;;;24.02;;
16634;SDS011;8431;52.458;9.998;2023-05-23T03:19:24;27.33;;;24.35;;
16634;SDS011;8431;52.458;9.998;2023-05-23T03:21:51;28.13;;;24.98;;
16634;SDS011;8431;52.458;9.998;2023-05-23T03:24:18;25.77;;;23.02;;
16634;SDS011;8431;52.458;9.998;2023-05-23T03:26:45;26.98;;;23.35;;
16634;SDS011;8431;52.458;9.998;2023-05-23T03:29:13;27.75;;;24.85;;
16634;SDS011;8431;52.458;9.998;2023-05-23T03:31:40;29.63;;;25.60;;
16634;SDS011;8431;52.458;9.998;2023-05-23T03:34:07;25.33;;;22.70;;
16634;SDS011;8431;52.458;9.998;2023-05-23T03:36:34;28.10;;;23.38;;
16634;SDS011;8431;52.458;9.998;2023-05-23T03:39:03;26.13;;;23.15;;
16634;SDS011;8431;52.458;9.998;2023-05-23T03:41:30;25.85;;;22.88;;
16634;SDS011;8431;52.458;9.998;2023-05-23T03:43:57;24.95;;;22.13;;
16634;SDS011;8431;52.458;9.998;2023-05-23T03:46:26;26.20;;;20.75;;
16634;SDS011;8431;52.458;9.998;2023-05-23T03:48:53;30.23;;;22.45;;
16634;SDS011;8431;52.458;9.998;2023-05-23T03:51:20;25.40;;;22.70;;
16634;SDS011;8431;52.458;9.998;2023-05-23T03:53:48;25.35;;;22.83;;
16634;SDS011;8431;52.458;9.998;2023-05-23T03:56:15;27.02;;;24.23;;
16634;SDS011;8431;52.458;9.998;2023-05-23T03:58:42;28.10;;;24.17;;
16634;SDS011;8431;52.458;9.998;2023-05-23T04:01:09;27.95;;;25.02;;
16634;SDS011;8431;52.458;9.998;2023-05-23T04:03:37;30.42;;;26.23;;
16634;SDS011;8431;52.458;9.998;2023-05-23T04:06:04;28.77;;;25.60;;
16634;SDS011;8431;52.458;9.998;2023-05-23T04:08:31;29.67;;;25.27;;
16634;SDS011;8431;52.458;9.998;2023-05-23T04:10:59;28.27;;;24.88;;
16634;SDS011;8431;52.458;9.998;2023-05-23T04:13:26;30.13;;;25.75;;
16634;SDS011;8431;52.458;9.998;2023-05-23T04:15:55;28.65;;;24.73;;
16634;SDS011;8431;52.458;9.998;2023-05-23T04:18:22;30.23;;;24.77;;
16634;SDS011;8431;52.458;9.998;2023-05-23T04:20:50;25.83;;;23.20;;
16634;SDS011;8431;52.458;9.998;2023-05-23T04:23:17;26.45;;;23.63;;
16634;SDS011;8431;52.458;9.998;2023-05-23T04:25:44;27.35;;;24.38;;
16634;SDS011;8431;52.458;9.998;2023-05-23T04:28:12;25.98;;;22.98;;
16634;SDS011;8431;52.458;9.998;2023-05-23T04:30:41;25.58;;;22.60;;
16634;SDS011;8431;52.458;9.998;2023-05-23T04:33:08;25.50;;;21.90;;
16634;SDS011;8431;52.458;9.998;2023-05-23T04:35:35;24.15;;;21.60;;
16634;SDS011;8431;52.458;9.998;2023-05-23T04:38:06;24.85;;;22.27;;
16634;SDS011;8431;52.458;9.998;2023-05-23T04:40:32;25.00;;;20.88;;
16634;SDS011;8431;52.458;9.998;2023-05-23T04:42:59;24.25;;;21.67;;
16634;SDS011;8431;52.458;9.998;2023-05-23T04:45:26;22.70;;;20.50;;
16634;SDS011;8431;52.458;9.998;2023-05-23T04:47:53;21.77;;;19.35;;
16634;SDS011;8431;52.458;9.998;2023-05-23T04:50:20;20.90;;;18.80;;
16634;SDS011;8431;52.458;9.998;2023-05-23T04:52:47;21.02;;;18.52;;
16634;SDS011;8431;52.458;9.998;2023-05-23T04:55:16;21.65;;;19.35;;
16634;SDS011;8431;52.458;9.998;2023-05-23T04:57:44;21.13;;;18.60;;
16634;SDS011;8431;52.458;9.998;2023-05-23T05:00:11;20.42;;;18.15;;
16634;SDS011;8431;52.458;9.998;2023-05-23T05:02:39;22.23;;;17.75;;
16634;SDS011;8431;52.458;9.998;2023-05-23T05:05:07;22.23;;;19.60;;
16634;SDS011;8431;52.458;9.998;2023-05-23T05:07:35;22.60;;;20.20;;
16634;SDS011;8431;52.458;9.998;2023-05-23T05:10:02;22.60;;;19.35;;
16634;SDS011;8431;52.458;9.998;2023-05-23T05:12:31;22.00;;;19.30;;
16634;SDS011;8431;52.458;9.998;2023-05-23T05:14:58;22.60;;;19.75;;
16634;SDS011;8431;52.458;9.998;2023-05-23T05:17:25;23.10;;;18.55;;
16634;SDS011;8431;52.458;9.998;2023-05-23T05:19:54;20.58;;;18.45;;
16634;SDS011;8431;52.458;9.998;2023-05-23T05:22:20;21.38;;;18.40;;
16634;SDS011;8431;52.458;9.998;2023-05-23T05:24:49;19.98;;;17.10;;
16634;SDS011;8431;52.458;9.998;2023-05-23T05:27:16;23.00;;;17.73;;
16634;SDS011;8431;52.458;9.998;2023-05-23T05:29:44;24.23;;;18.35;;
16634;SDS011;8431;52.458;9.998;2023-05-23T05:32:12;19.90;;;16.98;;
16634;SDS011;8431;52.458;9.998;2023-05-23T05:34:39;24.35;;;18.13;;
16634;SDS011;8431;52.458;9.998;2023-05-23T05:37:07;19.98;;;17.80;;
16634;SDS011;8431;52.458;9.998;2023-05-23T05:39:34;20.77;;;16.65;;
16634;SDS011;8431;52.458;9.998;2023-05-23T05:42:01;22.40;;;17.88;;
16634;SDS011;8431;52.458;9.998;2023-05-23T05:44:29;20.70;;;17.17;;
16634;SDS011;8431;52.458;9.998;2023-05-23T05:46:57;19.88;;;16.67;;
16634;SDS011;8431;52.458;9.998;2023-05-23T05:49:24;18.65;;;16.52;;
16634;SDS011;8431;52.458;9.998;2023-05-23T05:51:51;20.50;;;16.52;;
16634;SDS011;8431;52.458;9.998;2023-05-23T05:54:18;18.02;;;15.70;;
16634;SDS011;8431;52.458;9.998;2023-05-23T05:56:45;18.42;;;16.40;;
16634;SDS011;8431;52.458;9.998;2023-05-23T05:59:12;22.38;;;18.00;;
16634;SDS011;8431;52.458;9.998;2023-05-23T06:01:39;19.60;;;17.45;;
16634;SDS011;8431;52.458;9.998;2023-05-23T06:04:07;19.55;;;15.88;;
16634;SDS011;8431;52.458;9.998;2023-05-23T06:06:35;18.05;;;15.23;;
16634;SDS011;8431;52.458;9.998;2023-05-23T06:09:01;20.30;;;15.68;;
16634;SDS011;8431;52.458;9.998;2023-05-23T06:11:29;15.43;;;13.25;;
16634;SDS011;8431;52.458;9.998;2023-05-23T06:13:56;14.90;;;12.50;;
16634;SDS011;8431;52.458;9.998;2023-05-23T06:16:23;14.18;;;12.45;;
16634;SDS011;8431;52.458;9.998;2023-05-23T06:18:50;15.23;;;12.60;;
16634;SDS011;8431;52.458;9.998;2023-05-23T06:21:18;14.85;;;13.35;;
16634;SDS011;8431;52.458;9.998;2023-05-23T06:23:45;13.15;;;11.82;;
16634;SDS011;8431;52.458;9.998;2023-05-23T06:26:12;14.38;;;12.98;;
16634;SDS011;8431;52.458;9.998;2023-05-23T06:28:40;13.55;;;12.25;;
16634;SDS011;8431;52.458;9.998;2023-05-23T06:31:07;13.65;;;12.25;;
16634;SDS011;8431;52.458;9.998;2023-05-23T06:33:35;13.80;;;12.52;;
16634;SDS011;8431;52.458;9.998;2023-05-23T06:36:02;13.63;;;12.30;;
16634;SDS011;8431;52.458;9.998;2023-05-23T06:38:30;13.00;;;11.75;;
16634;SDS011;8431;52.458;9.998;2023-05-23T06:40:58;14.60;;;13.00;;
16634;SDS011;8431;52.458;9.998;2023-05-23T06:43:26;13.52;;;12.05;;
16634;SDS011;8431;52.458;9.998;2023-05-23T06:45:53;13.60;;;12.27;;
16634;SDS011;8431;52.458;9.998;2023-05-23T06:48:20;15.50;;;14.00;;
16634;SDS011;8431;52.458;9.998;2023-05-23T06:50:47;15.52;;;13.70;;
16634;SDS011;8431;52.458;9.998;2023-05-23T06:53:14;14.77;;;13.43;;
16634;SDS011;8431;52.458;9.998;2023-05-23T06:55:44;15.13;;;13.55;;
16634;SDS011;8431;52.458;9.998;2023-05-23T06:58:10;15.00;;;13.60;;
16634;SDS011;8431;52.458;9.998;2023-05-23T07:00:38;14.05;;;12.73;;
16634;SDS011;8431;52.458;9.998;2023-05-23T07:03:05;14.57;;;13.10;;
16634;SDS011;8431;52.458;9.998;2023-05-23T07:05:32;15.18;;;13.57;;
16634;SDS011;8431;52.458;9.998;2023-05-23T07:08:00;14.13;;;12.82;;
16634;SDS011;8431;52.458;9.998;2023-05-23T07:10:27;14.65;;;13.10;;
16634;SDS011;8431;52.458;9.998;2023-05-23T07:12:56;13.68;;;12.45;;
16634;SDS011;8431;52.458;9.998;2023-05-23T07:15:23;12.18;;;11.00;;
16634;SDS011;8431;52.458;9.998;2023-05-23T07:17:50;10.98;;;9.93;;
16634;SDS011;8431;52.458;9.998;2023-05-23T07:20:16;12.82;;;11.60;;
16634;SDS011;8431;52.458;9.998;2023-05-23T07:22:43;13.50;;;12.18;;
16634;SDS011;8431;52.458;9.998;2023-05-23T07:25:10;12.15;;;10.95;;
16634;SDS011;8431;52.458;9.998;2023-05-23T07:27:37;12.45;;;11.25;;
16634;SDS011;8431;52.458;9.998;2023-05-23T07:30:06;11.90;;;10.75;;
16634;SDS011;8431;52.458;9.998;2023-05-23T07:32:34;11.65;;;10.50;;
16634;SDS011;8431;52.458;9.998;2023-05-23T07:35:01;12.07;;;10.98;;
16634;SDS011;8431;52.458;9.998;2023-05-23T07:37:29;12.73;;;11.60;;
16634;SDS011;8431;52.458;9.998;2023-05-23T07:39:56;11.07;;;10.02;;
16634;SDS011;8431;52.458;9.998;2023-05-23T07:42:22;10.50;;;9.57;;
16634;SDS011;8431;52.458;9.998;2023-05-23T07:44:49;10.00;;;9.10;;
16634;SDS011;8431;52.458;9.998;2023-05-23T07:47:18;8.07;;;7.43;;
16634;SDS011;8431;52.458;9.998;2023-05-23T07:49:44;9.13;;;8.43;;
16634;SDS011;8431;52.458;9.998;2023-05-23T07:52:12;8.18;;;7.47;;
16634;SDS011;8431;52.458;9.998;2023-05-23T07:54:39;10.52;;;9.60;;
16634;SDS011;8431;52.458;9.998;2023-05-23T07:57:06;10.70;;;9.80;;
16634;SDS011;8431;52.458;9.998;2023-05-23T07:59:33;11.00;;;10.13;;
16634;SDS011;8431;52.458;9.998;2023-05-23T08:02:12;11.75;;;10.57;;
16634;SDS011;8431;52.458;9.998;2023-05-23T08:05:03;15.80;;;11.90;;
16634;SDS011;8431;52.458;9.998;2023-05-23T08:07:31;13.93;;;12.63;;
16634;SDS011;8431;52.458;9.998;2023-05-23T08:12:31;18.30;;;16.27;;
16634;SDS011;8431;52.458;9.998;2023-05-23T08:14:58;16.98;;;15.27;;
16634;SDS011;8431;52.458;9.998;2023-05-23T08:17:32;20.05;;;17.77;;
16634;SDS011;8431;52.458;9.998;2023-05-23T08:20:23;21.38;;;17.65;;
16634;SDS011;8431;52.458;9.998;2023-05-23T08:23:18;17.55;;;15.77;;
16634;SDS011;8431;52.458;9.998;2023-05-23T08:25:45;17.85;;;15.40;;
16634;SDS011;8431;52.458;9.998;2023-05-23T08:28:12;20.63;;;18.23;;
16634;SDS011;8431;52.458;9.998;2023-05-23T08:30:39;19.73;;;17.65;;
16634;SDS011;8431;52.458;9.998;2023-05-23T08:33:08;17.92;;;16.15;;
16634;SDS011;8431;52.458;9.998;2023-05-23T08:35:35;15.07;;;13.68;;
16634;SDS011;8431;52.458;9.998;2023-05-23T08:38:02;20.02;;;17.63;;
16634;SDS011;8431;52.458;9.998;2023-05-23T08:40:31;16.35;;;14.65;;
16634;SDS011;8431;52.458;9.998;2023-05-23T08:43:00;16.80;;;15.05;;
16634;SDS011;8431;52.458;9.998;2023-05-23T08:45:28;16.77;;;13.18;;
16634;SDS011;8431;52.458;9.998;2023-05-23T08:47:55;20.63;;;14.82;;
16634;SDS011;8431;52.458;9.998;2023-05-23T08:50:28;15.10;;;12.98;;
16634;SDS011;8431;52.458;9.998;2023-05-23T08:52:56;20.73;;;18.00;;
16634;SDS011;8431;52.458;9.998;2023-05-23T08:55:24;20.45;;;17.85;;
16634;SDS011;8431;52.458;9.998;2023-05-23T08:57:52;21.10;;;16.42;;
16634;SDS011;8431;52.458;9.998;2023-05-23T09:00:20;21.70;;;17.08;;
16634;SDS011;8431;52.458;9.998;2023-05-23T09:02:47;22.45;;;18.27;;
16634;SDS011;8431;52.458;9.998;2023-05-23T09:05:14;24.33;;;16.95;;
16634;SDS011;8431;52.458;9.998;2023-05-23T09:07:44;24.63;;;18.17;;
16634;SDS011;8431;52.458;9.998;2023-05-23T09:10:14;17.98;;;14.27;;
16634;SDS011;8431;52.458;9.998;2023-05-23T09:12:42;26.65;;;15.77;;
16634;SDS011;8431;52.458;9.998;2023-05-23T09:15:10;18.73;;;15.85;;
16634;SDS011;8431;52.458;9.998;2023-05-23T09:17:38;20.10;;;14.60;;
16634;SDS011;8431;52.458;9.998;2023-05-23T09:20:09;19.55;;;14.07;;
16634;SDS011;8431;52.458;9.998;2023-05-23T09:22:38;16.13;;;13.00;;
16634;SDS011;8431;52.458;9.998;2023-05-23T09:25:07;18.35;;;11.32;;
16634;SDS011;8431;52.458;9.998;2023-05-23T09:27:34;17.30;;;12.88;;
16634;SDS011;8431;52.458;9.998;2023-05-23T09:30:05;18.05;;;13.18;;
16634;SDS011;8431;52.458;9.998;2023-05-23T09:32:38;25.65;;;14.65;;
16634;SDS011;8431;52.458;9.998;2023-05-23T09:35:06;11.15;;;9.82;;
16634;SDS011;8431;52.458;9.998;2023-05-23T09:37:36;19.15;;;11.48;;
16634;SDS011;8431;52.458;9.998;2023-05-23T09:40:05;12.43;;;8.80;;
16634;SDS011;8431;52.458;9.998;2023-05-23T09:42:35;11.95;;;8.93;;
16634;SDS011;8431;52.458;9.998;2023-05-23T09:45:08;19.08;;;10.68;;
16634;SDS011;8431;52.458;9.998;2023-05-23T09:47:35;13.80;;;9.23;;
16634;SDS011;8431;52.458;9.998;2023-05-23T09:50:02;17.02;;;12.02;;
16634;SDS011;8431;52.458;9.998;2023-05-23T09:52:33;12.55;;;10.40;;
16634;SDS011;8431;52.458;9.998;2023-05-23T09:55:02;12.63;;;8.23;;
16634;SDS011;8431;52.458;9.998;2023-05-23T09:57:32;10.65;;;7.72;;
16634;SDS011;8431;52.458;9.998;2023-05-23T10:00:02;6.50;;;5.80;;
16634;SDS011;8431;52.458;9.998;2023-05-23T10:02:51;14.07;;;8.60;;
16634;SDS011;8431;52.458;9.998;2023-05-23T10:05:26;11.23;;;8.30;;
16634;SDS011;8431;52.458;9.998;2023-05-23T10:07:58;15.35;;;8.52;;
16634;SDS011;8431;52.458;9.998;2023-05-23T10:10:28;11.27;;;8.43;;
16634;SDS011;8431;52.458;9.998;2023-05-23T10:12:59;14.40;;;8.38;;
16634;SDS011;8431;52.458;9.998;2023-05-23T10:15:29;9.65;;;7.45;;
16634;SDS011;8431;52.458;9.998;2023-05-23T10:18:01;10.05;;;7.88;;
16634;SDS011;8431;52.458;9.998;2023-05-23T10:20:33;9.40;;;8.07;;
16634;SDS011;8431;52.458;9.998;2023-05-23T10:23:02;7.10;;;6.38;;
16634;SDS011;8431;52.458;9.998;2023-05-23T10:25:31;6.82;;;5.20;;
16634;SDS011;8431;52.458;9.998;2023-05-23T10:28:02;7.60;;;5.65;;
16634;SDS011;8431;52.458;9.998;2023-05-23T10:30:30;8.32;;;6.50;;
16634;SDS011;8431;52.458;9.998;2023-05-23T10:32:57;10.23;;;5.80;;
16634;SDS011;8431;52.458;9.998;2023-05-23T10:38:09;8.00;;;5.88;;
16634;SDS011;8431;52.458;9.998;2023-05-23T10:40:49;10.18;;;5.95;;
16634;SDS011;8431;52.458;9.998;2023-05-23T10:43:26;8.50;;;5.95;;
16634;SDS011;8431;52.458;9.998;2023-05-23T10:46:13;7.43;;;5.50;;
16634;SDS011;8431;52.458;9.998;2023-05-23T10:48:42;7.57;;;5.13;;
16634;SDS011;8431;52.458;9.998;2023-05-23T10:51:11;6.50;;;4.78;;
16634;SDS011;8431;52.458;9.998;2023-05-23T10:53:40;6.28;;;4.80;;
16634;SDS011;8431;52.458;9.998;2023-05-23T10:56:09;8.40;;;5.47;;
16634;SDS011;8431;52.458;9.998;2023-05-23T10:58:45;5.13;;;4.43;;
16634;SDS011;8431;52.458;9.998;2023-05-23T11:01:12;6.18;;;3.95;;
16634;SDS011;8431;52.458;9.998;2023-05-23T11:03:48;7.15;;;4.55;;
16634;SDS011;8431;52.458;9.998;2023-05-23T11:06:27;7.88;;;4.72;;
16634;SDS011;8431;52.458;9.998;2023-05-23T11:09:03;7.18;;;4.55;;
16634;SDS011;8431;52.458;9.998;2023-05-23T11:14:30;8.90;;;5.53;;
16634;SDS011;8431;52.458;9.998;2023-05-23T11:16:59;9.77;;;5.50;;
16634;SDS011;8431;52.458;9.998;2023-05-23T11:19:26;8.25;;;5.38;;
16634;SDS011;8431;52.458;9.998;2023-05-23T11:21:55;13.35;;;5.60;;
16634;SDS011;8431;52.458;9.998;2023-05-23T11:24:46;7.88;;;4.93;;
16634;SDS011;8431;52.458;9.998;2023-05-23T11:30:04;6.63;;;4.93;;
16634;SDS011;8431;52.458;9.998;2023-05-23T11:32:33;9.48;;;6.07;;
16634;SDS011;8431;52.458;9.998;2023-05-23T11:35:02;10.98;;;5.20;;
16634;SDS011;8431;52.458;9.998;2023-05-23T11:37:30;11.38;;;5.60;;
16634;SDS011;8431;52.458;9.998;2023-05-23T11:40:00;7.10;;;5.43;;
16634;SDS011;8431;52.458;9.998;2023-05-23T11:42:53;10.27;;;5.43;;
16634;SDS011;8431;52.458;9.998;2023-05-23T11:45:22;9.20;;;5.00;;
16634;SDS011;8431;52.458;9.998;2023-05-23T11:47:50;6.82;;;4.53;;
16634;SDS011;8431;52.458;9.998;2023-05-23T11:50:17;10.30;;;5.85;;
16634;SDS011;8431;52.458;9.998;2023-05-23T11:52:45;13.80;;;5.97;;
16634;SDS011;8431;52.458;9.998;2023-05-23T11:55:15;15.98;;;6.53;;
16634;SDS011;8431;52.458;9.998;2023-05-23T11:57:43;15.45;;;5.85;;
16634;SDS011;8431;52.458;9.998;2023-05-23T12:00:10;9.93;;;4.93;;
16634;SDS011;8431;52.458;9.998;2023-05-23T12:02:42;11.45;;;5.90;;
16634;SDS011;8431;52.458;9.998;2023-05-23T12:05:12;9.93;;;6.07;;
16634;SDS011;8431;52.458;9.998;2023-05-23T12:07:40;16.92;;;6.30;;
16634;SDS011;8431;52.458;9.998;2023-05-23T12:10:08;10.00;;;5.95;;
16634;SDS011;8431;52.458;9.998;2023-05-23T12:12:35;11.32;;;6.40;;
16634;SDS011;8431;52.458;9.998;2023-05-23T12:15:05;11.48;;;5.50;;
16634;SDS011;8431;52.458;9.998;2023-05-23T12:17:32;13.60;;;5.20;;
16634;SDS011;8431;52.458;9.998;2023-05-23T12:20:01;17.90;;;5.97;;
16634;SDS011;8431;52.458;9.998;2023-05-23T12:22:28;9.55;;;6.07;;
16634;SDS011;8431;52.458;9.998;2023-05-23T12:24:55;13.90;;;5.47;;
16634;SDS011;8431;52.458;9.998;2023-05-23T12:27:25;10.98;;;5.55;;
16634;SDS011;8431;52.458;9.998;2023-05-23T12:30:03;6.80;;;5.30;;
16634;SDS011;8431;52.458;9.998;2023-05-23T12:32:31;9.05;;;5.57;;
16634;SDS011;8431;52.458;9.998;2023-05-23T12:35:01;11.23;;;5.30;;
16634;SDS011;8431;52.458;9.998;2023-05-23T12:37:29;8.23;;;4.97;;
16634;SDS011;8431;52.458;9.998;2023-05-23T12:39:56;13.35;;;5.03;;
16634;SDS011;8431;52.458;9.998;2023-05-23T12:42:23;11.40;;;5.47;;
16634;SDS011;8431;52.458;9.998;2023-05-23T12:44:52;6.57;;;4.82;;
16634;SDS011;8431;52.458;9.998;2023-05-23T12:47:19;8.02;;;5.20;;
16634;SDS011;8431;52.458;9.998;2023-05-23T12:49:46;9.85;;;5.93;;
16634;SDS011;8431;52.458;9.998;2023-05-23T12:52:15;9.40;;;5.15;;
16634;SDS011;8431;52.458;9.998;2023-05-23T12:54:42;9.05;;;5.75;;
16634;SDS011;8431;52.458;9.998;2023-05-23T12:57:09;13.75;;;6.07;;
16634;SDS011;8431;52.458;9.998;2023-05-23T12:59:38;9.45;;;6.28;;
16634;SDS011;8431;52.458;9.998;2023-05-23T13:02:05;10.82;;;6.30;;
16634;SDS011;8431;52.458;9.998;2023-05-23T13:04:33;13.52;;;5.20;;
16634;SDS011;8431;52.458;9.998;2023-05-23T13:07:00;9.65;;;5.63;;
16634;SDS011;8431;52.458;9.998;2023-05-23T13:09:28;12.48;;;6.28;;
16634;SDS011;8431;52.458;9.998;2023-05-23T13:11:55;7.38;;;4.97;;
16634;SDS011;8431;52.458;9.998;2023-05-23T13:14:22;12.57;;;6.40;;
16634;SDS011;8431;52.458;9.998;2023-05-23T13:16:49;13.52;;;6.10;;
16634;SDS011;8431;52.458;9.998;2023-05-23T13:19:17;8.32;;;6.32;;
16634;SDS011;8431;52.458;9.998;2023-05-23T13:21:44;11.00;;;7.72;;
16634;SDS011;8431;52.458;9.998;2023-05-23T13:24:10;13.80;;;6.68;;
16634;SDS011;8431;52.458;9.998;2023-05-23T13:26:40;14.48;;;6.32;;
16634;SDS011;8431;52.458;9.998;2023-05-23T13:29:07;10.60;;;6.43;;
16634;SDS011;8431;52.458;9.998;2023-05-23T13:31:35;11.05;;;6.43;;
16634;SDS011;8431;52.458;9.998;2023-05-23T13:34:02;11.82;;;7.47;;
16634;SDS011;8431;52.458;9.998;2023-05-23T13:36:29;11.45;;;6.80;;
16634;SDS011;8431;52.458;9.998;2023-05-23T13:38:56;9.40;;;6.88;;
16634;SDS011;8431;52.458;9.998;2023-05-23T13:41:23;11.15;;;7.07;;
16634;SDS011;8431;52.458;9.998;2023-05-23T13:43:51;12.20;;;7.25;;
16634;SDS011;8431;52.458;9.998;2023-05-23T13:46:18;11.05;;;7.32;;
16634;SDS011;8431;52.458;9.998;2023-05-23T13:48:45;11.95;;;7.38;;
16634;SDS011;8431;52.458;9.998;2023-05-23T13:51:12;12.68;;;6.75;;
16634;SDS011;8431;52.458;9.998;2023-05-23T13:53:40;9.73;;;7.00;;
16634;SDS011;8431;52.458;9.998;2023-05-23T13:56:07;10.73;;;6.70;;
16634;SDS011;8431;52.458;9.998;2023-05-23T13:58:37;13.00;;;6.72;;
16634;SDS011;8431;52.458;9.998;2023-05-23T14:01:05;12.40;;;7.93;;
16634;SDS011;8431;52.458;9.998;2023-05-23T14:03:32;10.43;;;5.93;;
16634;SDS011;8431;52.458;9.998;2023-05-23T14:05:59;11.98;;;6.68;;
16634;SDS011;8431;52.458;9.998;2023-05-23T14:08:25;10.85;;;6.30;;
16634;SDS011;8431;52.458;9.998;2023-05-23T14:10:52;8.75;;;7.35;;
16634;SDS011;8431;52.458;9.998;2023-05-23T14:15:50;10.55;;;7.20;;
16634;SDS011;8431;52.458;9.998;2023-05-23T14:18:19;9.38;;;6.40;;
16634;SDS011;8431;52.458;9.998;2023-05-23T14:20:46;6.60;;;6.00;;
16634;SDS011;8431;52.458;9.998;2023-05-23T14:23:13;10.65;;;7.13;;
16634;SDS011;8431;52.458;9.998;2023-05-23T14:25:40;8.63;;;6.28;;
16634;SDS011;8431;52.458;9.998;2023-05-23T14:30:38;12.35;;;6.97;;
16634;SDS011;8431;52.458;9.998;2023-05-23T14:33:05;11.85;;;7.43;;
16634;SDS011;8431;52.458;9.998;2023-05-23T14:35:33;7.65;;;6.80;;
16634;SDS011;8431;52.458;9.998;2023-05-23T14:38:06;11.55;;;6.97;;
16634;SDS011;8431;52.458;9.998;2023-05-23T14:40:34;14.45;;;7.57;;
16634;SDS011;8431;52.458;9.998;2023-05-23T14:43:03;10.30;;;6.75;;
16634;SDS011;8431;52.458;9.998;2023-05-23T14:45:31;11.45;;;7.57;;
16634;SDS011;8431;52.458;9.998;2023-05-23T14:47:58;8.38;;;6.50;;
16634;SDS011;8431;52.458;9.998;2023-05-23T14:50:25;9.73;;;7.03;;
16634;SDS011;8431;52.458;9.998;2023-05-23T14:52:53;12.00;;;6.35;;
16634;SDS011;8431;52.458;9.998;2023-05-23T14:55:21;12.32;;;7.25;;
16634;SDS011;8431;52.458;9.998;2023-05-23T14:57:48;9.80;;;6.70;;
16634;SDS011;8431;52.458;9.998;2023-05-23T15:00:15;10.30;;;6.78;;
16634;SDS011;8431;52.458;9.998;2023-05-23T15:02:43;15.68;;;7.28;;
16634;SDS011;8431;52.458;9.998;2023-05-23T15:05:11;11.75;;;6.68;;